createdAt,value
2023-03-01T00:00:47.511Z,22.95
2023-03-01T00:01:56.780Z,21.73
2023-03-01T00:02:59.551Z,22.40
2023-03-01T00:04:04.786Z,22.50
2023-03-01T00:05:08.468Z,21.27
2023-03-01T00:06:12.575Z,21.85
2023-03-01T00:07:15.498Z,21.77
2023-03-01T00:09:33.721Z,22.45
2023-03-01T00:10:35.284Z,22.60
2023-03-01T00:11:37.802Z,22.45
2023-03-01T00:12:39.428Z,21.80
2023-03-01T00:13:43.516Z,20.52
2023-03-01T00:14:45.032Z,23.05
2023-03-01T00:15:48.853Z,21.83
2023-03-01T00:16:50.449Z,22.48
2023-03-01T00:17:52.896Z,21.38
2023-03-01T00:18:54.899Z,22.00
2023-03-01T00:19:57.418Z,21.77
2023-03-01T00:20:59.252Z,22.40
2023-03-01T00:22:01.803Z,22.02
2023-03-01T00:23:06.389Z,22.05
2023-03-01T00:24:09.475Z,21.63
2023-03-01T00:25:11.168Z,21.58
2023-03-01T00:26:15.727Z,22.70
2023-03-01T00:27:17.241Z,21.17
2023-03-01T00:28:21.228Z,22.25
2023-03-01T00:29:22.889Z,21.63
2023-03-01T00:30:25.639Z,22.23
2023-03-01T00:31:30.918Z,22.30
2023-03-01T00:32:33.831Z,22.50
2023-03-01T00:33:35.574Z,21.85
2023-03-01T00:34:38.228Z,22.55
2023-03-01T00:35:40.118Z,23.58
2023-03-01T00:36:42.645Z,22.83
2023-03-01T00:37:44.167Z,21.95
2023-03-01T00:38:47.575Z,20.67
2023-03-01T00:39:49.293Z,22.27
2023-03-01T00:40:51.755Z,22.13
2023-03-01T00:41:54.336Z,21.40
2023-03-01T00:42:56.974Z,22.23
2023-03-01T00:43:58.621Z,21.40
2023-03-01T00:45:01.098Z,20.77
2023-03-01T00:46:02.715Z,20.67
2023-03-01T00:47:06.637Z,21.90
2023-03-01T00:48:08.245Z,21.60
2023-03-01T00:49:10.984Z,21.80
2023-03-01T00:50:12.932Z,21.50
2023-03-01T00:51:17.937Z,22.17
2023-03-01T00:52:19.533Z,21.63
2023-03-01T00:53:21.988Z,21.80
2023-03-01T00:54:23.701Z,21.23
2023-03-01T00:55:26.869Z,22.13
2023-03-01T00:56:29.207Z,21.83
2023-03-01T00:57:31.950Z,21.98
2023-03-01T00:58:33.598Z,21.33
2023-03-01T00:59:36.052Z,20.58
2023-03-01T01:00:37.814Z,22.58
2023-03-01T01:01:40.543Z,22.05
2023-03-01T01:02:43.711Z,21.38
2023-03-01T01:03:48.310Z,21.85
2023-03-01T01:04:49.894Z,21.67
2023-03-01T01:05:52.742Z,23.20
2023-03-01T01:06:54.273Z,22.45
2023-03-01T01:07:56.842Z,22.35
2023-03-01T01:08:58.920Z,22.17
2023-03-01T01:10:01.660Z,22.65
2023-03-01T01:11:03.247Z,21.55
2023-03-01T01:12:05.985Z,22.05
2023-03-01T01:13:07.489Z,21.73
2023-03-01T01:14:09.912Z,22.38
2023-03-01T01:15:14.092Z,21.88
2023-03-01T01:16:17.527Z,22.13
2023-03-01T01:17:19.080Z,21.20
2023-03-01T01:18:22.949Z,22.05
2023-03-01T01:19:26.394Z,22.00
2023-03-01T01:20:27.949Z,22.33
2023-03-01T01:21:30.781Z,21.85
2023-03-01T01:22:32.326Z,22.75
2023-03-01T01:23:34.861Z,21.65
2023-03-01T01:24:37.513Z,21.48
2023-03-01T01:25:39.038Z,22.05
2023-03-01T01:26:42.188Z,22.30
2023-03-01T01:27:43.933Z,20.95
2023-03-01T01:28:46.623Z,21.55
2023-03-01T01:29:48.158Z,22.20
2023-03-01T01:30:50.977Z,23.38
2023-03-01T01:31:52.556Z,23.13
2023-03-01T01:32:55.515Z,23.27
2023-03-01T01:34:00.122Z,22.42
2023-03-01T01:35:02.650Z,22.67
2023-03-01T01:36:05.098Z,21.88
2023-03-01T01:37:08.980Z,21.95
2023-03-01T01:38:10.533Z,22.73
2023-03-01T01:39:14.063Z,22.92
2023-03-01T01:40:15.652Z,22.50
2023-03-01T01:41:18.629Z,21.80
2023-03-01T01:42:20.123Z,23.40
2023-03-01T01:43:25.195Z,22.15
2023-03-01T01:44:29.011Z,22.85
2023-03-01T01:45:36.319Z,21.65
2023-03-01T01:46:40.097Z,21.75
2023-03-01T01:47:42.730Z,22.40
2023-03-01T01:48:47.770Z,23.67
2023-03-01T01:49:56.225Z,23.48
2023-03-01T01:51:01.821Z,22.25
2023-03-01T01:52:10.280Z,22.05
2023-03-01T01:53:16.098Z,22.65
2023-03-01T01:54:23.903Z,23.38
2023-03-01T01:55:28.542Z,22.00
2023-03-01T01:56:32.209Z,23.13
2023-03-01T01:57:37.137Z,23.27
2023-03-01T01:58:41.425Z,22.30
2023-03-01T01:59:46.676Z,22.67
2023-03-01T02:00:50.360Z,21.75
2023-03-01T02:01:52.339Z,23.13
2023-03-01T02:02:58.781Z,22.73
2023-03-01T02:04:00.718Z,23.60
2023-03-01T02:05:13.563Z,22.67
2023-03-01T02:06:20.921Z,22.02
2023-03-01T02:07:25.681Z,24.42
2023-03-01T02:08:31.569Z,22.42
2023-03-01T02:09:35.401Z,22.88
2023-03-01T02:10:37.474Z,23.15
2023-03-01T02:11:40.148Z,22.90
2023-03-01T02:12:42.315Z,22.58
2023-03-01T02:13:45.129Z,22.50
2023-03-01T02:14:47.597Z,23.75
2023-03-01T02:15:50.124Z,23.13
2023-03-01T02:16:53.147Z,23.27
2023-03-01T02:17:57.019Z,23.77
2023-03-01T02:18:59.753Z,24.65
2023-03-01T02:20:18.088Z,23.92
2023-03-01T02:21:31.721Z,22.52
2023-03-01T02:22:36.890Z,24.17
2023-03-01T02:23:39.409Z,23.42
2023-03-01T02:24:52.291Z,22.23
2023-03-01T02:26:03.478Z,22.65
2023-03-01T02:27:05.388Z,22.33
2023-03-01T02:28:22.875Z,22.13
2023-03-01T02:29:25.518Z,22.40
2023-03-01T02:30:29.414Z,22.02
2023-03-01T02:31:43.256Z,22.50
2023-03-01T02:32:44.934Z,23.13
2023-03-01T02:33:49.635Z,23.23
2023-03-01T02:34:52.386Z,23.17
2023-03-01T02:35:56.727Z,23.23
2023-03-01T02:37:02.352Z,22.90
2023-03-01T02:38:08.282Z,23.17
2023-03-01T02:39:15.438Z,22.30
2023-03-01T02:40:22.518Z,23.23
2023-03-01T02:41:26.113Z,22.98
2023-03-01T02:42:32.753Z,22.35
2023-03-01T02:43:35.896Z,22.63
2023-03-01T02:44:38.387Z,22.45
2023-03-01T02:45:48.923Z,21.48
2023-03-01T02:46:53.579Z,19.17
2023-03-01T02:47:55.505Z,22.30
2023-03-01T02:48:59.741Z,22.48
2023-03-01T02:50:01.383Z,23.13
2023-03-01T02:51:12.367Z,22.13
2023-03-01T02:52:45.526Z,23.48
2023-03-01T02:53:57.564Z,22.17
2023-03-01T02:55:03.938Z,21.52
2023-03-01T02:56:05.725Z,22.50
2023-03-01T02:57:09.472Z,21.58
2023-03-01T02:58:11.171Z,23.52
2023-03-01T02:59:15.053Z,23.02
2023-03-01T03:00:20.678Z,22.70
2023-03-01T03:01:24.005Z,21.77
2023-03-01T03:02:37.005Z,23.88
2023-03-01T03:03:40.015Z,22.40
2023-03-01T03:04:42.031Z,22.98
2023-03-01T03:05:45.374Z,22.10
2023-03-01T03:06:48.669Z,22.45
2023-03-01T03:07:52.476Z,22.58
2023-03-01T03:08:54.002Z,22.90
2023-03-01T03:09:56.459Z,23.83
2023-03-01T03:10:58.244Z,22.25
2023-03-01T03:12:00.782Z,22.17
2023-03-01T03:13:04.898Z,23.42
2023-03-01T03:14:13.372Z,23.00
2023-03-01T03:15:16.412Z,23.10
2023-03-01T03:16:19.066Z,21.98
2023-03-01T03:17:20.705Z,22.20
2023-03-01T03:18:23.695Z,22.25
2023-03-01T03:19:25.282Z,24.20
2023-03-01T03:20:30.005Z,23.33
2023-03-01T03:21:31.981Z,24.02
2023-03-01T03:22:35.039Z,22.45
2023-03-01T03:23:37.115Z,22.75
2023-03-01T03:24:39.903Z,23.67
2023-03-01T03:25:41.434Z,23.42
2023-03-01T03:26:43.939Z,24.52
2023-03-01T03:27:47.825Z,23.17
2023-03-01T03:28:50.384Z,22.42
2023-03-01T03:29:51.905Z,24.00
2023-03-01T03:30:55.801Z,23.85
2023-03-01T03:31:57.716Z,23.20
2023-03-01T03:33:01.461Z,23.67
2023-03-01T03:34:03.072Z,22.30
2023-03-01T03:35:10.253Z,22.73
2023-03-01T03:36:18.800Z,22.60
2023-03-01T03:37:35.277Z,24.00
2023-03-01T03:38:37.750Z,21.83
2023-03-01T03:39:39.230Z,22.52
2023-03-01T03:40:43.071Z,22.73
2023-03-01T03:41:44.706Z,23.25
2023-03-01T03:42:47.594Z,22.63
2023-03-01T03:43:50.229Z,22.55
2023-03-01T03:44:51.726Z,23.15
2023-03-01T03:45:58.171Z,23.65
2023-03-01T03:46:59.761Z,22.50
2023-03-01T03:48:02.737Z,22.25
2023-03-01T03:49:05.511Z,22.10
2023-03-01T03:50:07.664Z,22.05
2023-03-01T03:51:13.345Z,22.40
2023-03-01T03:52:14.866Z,22.27
2023-03-01T03:53:17.581Z,23.02
2023-03-01T03:54:20.145Z,22.05
2023-03-01T03:55:22.001Z,23.20
2023-03-01T03:56:28.557Z,23.00
2023-03-01T03:57:30.436Z,22.67
2023-03-01T03:58:33.182Z,22.83
2023-03-01T03:59:34.741Z,22.30
2023-03-01T04:00:39.381Z,22.58
2023-03-01T04:01:42.286Z,22.80
2023-03-01T04:02:45.238Z,24.95
2023-03-01T04:03:47.789Z,21.38
2023-03-01T04:04:50.637Z,23.48
2023-03-01T04:05:52.646Z,22.77
2023-03-01T04:06:55.098Z,24.35
2023-03-01T04:08:08.101Z,23.98
2023-03-01T04:09:10.798Z,22.02
2023-03-01T04:10:16.463Z,23.70
2023-03-01T04:11:28.121Z,22.35
2023-03-01T04:12:29.925Z,22.35
2023-03-01T04:13:32.350Z,24.02
2023-03-01T04:14:34.418Z,22.70
2023-03-01T04:15:37.456Z,22.70
2023-03-01T04:16:38.962Z,22.48
2023-03-01T04:17:43.648Z,24.10
2023-03-01T04:18:45.758Z,23.83
2023-03-01T04:19:49.775Z,23.58
2023-03-01T04:20:53.149Z,22.90
2023-03-01T04:21:55.638Z,23.33
2023-03-01T04:23:11.381Z,23.33
2023-03-01T04:24:14.045Z,22.88
2023-03-01T04:25:15.777Z,23.80
2023-03-01T04:26:18.252Z,22.27
2023-03-01T04:27:19.738Z,22.83
2023-03-01T04:28:23.107Z,23.27
2023-03-01T04:29:24.600Z,22.65
2023-03-01T04:30:27.076Z,22.83
2023-03-01T04:31:29.598Z,22.88
2023-03-01T04:32:31.299Z,21.48
2023-03-01T04:33:35.370Z,23.35
2023-03-01T04:34:36.911Z,23.35
2023-03-01T04:35:41.321Z,22.90
2023-03-01T04:36:43.036Z,22.80
2023-03-01T04:37:46.033Z,21.83
2023-03-01T04:38:48.412Z,22.88
2023-03-01T04:39:50.970Z,22.20
2023-03-01T04:40:52.506Z,22.38
2023-03-01T04:41:55.011Z,22.92
2023-03-01T04:42:56.808Z,22.55
2023-03-01T04:44:01.069Z,24.42
2023-03-01T04:45:02.705Z,22.52
2023-03-01T04:46:07.245Z,21.58
2023-03-01T04:47:08.784Z,21.83
2023-03-01T04:48:11.551Z,22.33
2023-03-01T04:49:14.491Z,21.52
2023-03-01T04:50:21.184Z,21.20
2023-03-01T04:51:23.722Z,22.83
2023-03-01T04:52:25.926Z,22.40
2023-03-01T04:53:28.893Z,21.45
2023-03-01T04:54:30.949Z,22.48
2023-03-01T04:55:33.449Z,21.73
2023-03-01T04:56:35.036Z,21.80
2023-03-01T04:57:37.570Z,21.02
2023-03-01T04:58:40.199Z,23.35
2023-03-01T04:59:41.713Z,22.83
2023-03-01T05:00:44.336Z,23.10
2023-03-01T05:01:45.910Z,24.02
2023-03-01T05:02:55.151Z,24.85
2023-03-01T05:04:03.793Z,21.85
2023-03-01T05:05:07.890Z,22.58
2023-03-01T05:06:10.410Z,22.02
2023-03-01T05:07:14.027Z,23.13
2023-03-01T05:08:19.377Z,23.15
2023-03-01T05:09:21.019Z,22.83
2023-03-01T05:10:24.854Z,23.45
2023-03-01T05:11:26.487Z,22.00
2023-03-01T05:12:29.012Z,21.38
2023-03-01T05:13:30.559Z,22.77
2023-03-01T05:14:32.984Z,21.70
2023-03-01T05:15:34.567Z,21.50
2023-03-01T05:16:38.214Z,21.55
2023-03-01T05:17:39.913Z,22.38
2023-03-01T05:18:42.845Z,21.30
2023-03-01T05:19:44.387Z,22.00
2023-03-01T05:20:48.317Z,21.08
2023-03-01T05:22:07.853Z,22.75
2023-03-01T05:23:10.304Z,21.45
2023-03-01T05:24:12.649Z,20.98
2023-03-01T05:25:16.046Z,22.65
2023-03-01T05:26:28.211Z,22.30
2023-03-01T05:27:30.590Z,23.40
2023-03-01T05:28:33.621Z,23.90
2023-03-01T05:29:36.011Z,22.00
2023-03-01T05:30:40.090Z,22.02
2023-03-01T05:31:42.348Z,22.42
2023-03-01T05:32:47.272Z,23.48
2023-03-01T05:33:48.869Z,24.13
2023-03-01T05:34:53.246Z,24.10
2023-03-01T05:36:02.183Z,24.30
2023-03-01T05:37:04.036Z,22.73
2023-03-01T05:38:06.664Z,24.65
2023-03-01T05:39:08.285Z,22.85
2023-03-01T05:40:16.653Z,23.50
2023-03-01T05:41:18.265Z,24.75
2023-03-01T05:42:20.713Z,24.50
2023-03-01T05:43:22.331Z,24.25
2023-03-01T05:44:25.482Z,23.60
2023-03-01T05:45:27.907Z,23.05
2023-03-01T05:46:30.667Z,23.00
2023-03-01T05:47:32.956Z,23.08
2023-03-01T05:48:35.570Z,23.02
2023-03-01T05:49:39.622Z,23.42
2023-03-01T05:50:44.250Z,22.23
2023-03-01T05:52:58.488Z,23.00
2023-03-01T05:54:00.004Z,22.70
2023-03-01T05:55:02.476Z,22.80
2023-03-01T05:56:05.585Z,22.63
2023-03-01T05:57:07.188Z,23.05
2023-03-01T05:58:12.403Z,23.15
2023-03-01T05:59:17.299Z,22.95
2023-03-01T06:00:23.103Z,23.35
2023-03-01T06:01:25.553Z,23.05
2023-03-01T06:02:28.150Z,22.48
2023-03-01T06:03:30.705Z,23.25
2023-03-01T06:04:32.261Z,23.35
2023-03-01T06:05:34.975Z,23.95
2023-03-01T06:06:38.476Z,23.08
2023-03-01T06:07:42.890Z,22.90
2023-03-01T06:08:44.552Z,23.52
2023-03-01T06:09:47.026Z,23.27
2023-03-01T06:10:48.663Z,24.27
2023-03-01T06:11:51.233Z,22.73
2023-03-01T06:12:53.236Z,22.83
2023-03-01T06:13:55.695Z,24.38
2023-03-01T06:14:57.210Z,22.30
2023-03-01T06:15:59.761Z,22.08
2023-03-01T06:17:01.314Z,21.65
2023-03-01T06:18:03.924Z,21.70
2023-03-01T06:19:05.417Z,21.20
2023-03-01T06:20:10.651Z,21.85
2023-03-01T06:21:13.135Z,21.58
2023-03-01T06:22:14.884Z,21.83
2023-03-01T06:23:18.647Z,20.55
2023-03-01T06:24:20.166Z,20.98
2023-03-01T06:25:24.694Z,21.13
2023-03-01T06:26:26.322Z,21.92
2023-03-01T06:27:28.908Z,21.50
2023-03-01T06:28:30.396Z,20.63
2023-03-01T06:29:33.146Z,21.27
2023-03-01T06:30:34.824Z,22.17
2023-03-01T06:31:37.362Z,20.05
2023-03-01T06:32:43.025Z,21.92
2023-03-01T06:33:45.899Z,20.92
2023-03-01T06:34:47.562Z,20.92
2023-03-01T06:35:50.213Z,20.45
2023-03-01T06:36:51.823Z,20.60
2023-03-01T06:37:54.307Z,21.00
2023-03-01T06:38:57.137Z,21.38
2023-03-01T06:39:59.581Z,20.40
2023-03-01T06:41:02.153Z,21.17
2023-03-01T06:42:05.596Z,20.95
2023-03-01T06:43:08.607Z,20.55
2023-03-01T06:44:10.163Z,21.65
2023-03-01T06:45:13.112Z,20.75
2023-03-01T06:46:14.662Z,22.23
2023-03-01T06:47:17.229Z,21.65
2023-03-01T06:48:19.847Z,20.77
2023-03-01T06:49:22.071Z,20.88
2023-03-01T06:50:24.576Z,21.27
2023-03-01T06:51:26.796Z,21.05
2023-03-01T06:52:29.293Z,20.63
2023-03-01T06:53:33.481Z,21.48
2023-03-01T06:54:36.395Z,20.73
2023-03-01T06:55:39.063Z,22.00
2023-03-01T06:56:41.545Z,22.08
2023-03-01T06:57:43.094Z,21.73
2023-03-01T06:58:45.577Z,22.63
2023-03-01T06:59:47.806Z,23.60
2023-03-01T07:00:50.286Z,23.63
2023-03-01T07:01:51.855Z,26.80
2023-03-01T07:02:54.438Z,26.70
2023-03-01T07:03:57.500Z,25.73
2023-03-01T07:04:59.117Z,26.08
2023-03-01T07:06:01.594Z,27.00
2023-03-01T07:07:03.055Z,26.60
2023-03-01T07:08:05.642Z,28.80
2023-03-01T07:09:07.148Z,27.85
2023-03-01T07:10:12.948Z,27.13
2023-03-01T07:11:16.061Z,28.73
2023-03-01T07:12:17.706Z,27.25
2023-03-01T07:13:20.270Z,29.20
2023-03-01T07:14:25.388Z,31.25
2023-03-01T07:15:28.092Z,28.98
2023-03-01T07:16:31.289Z,30.35
2023-03-01T07:17:33.044Z,31.30
2023-03-01T07:18:35.920Z,32.47
2023-03-01T07:19:37.409Z,30.48
2023-03-01T07:20:39.917Z,33.45
2023-03-01T07:21:41.493Z,32.88
2023-03-01T07:22:44.070Z,31.00
2023-03-01T07:23:48.612Z,31.00
2023-03-01T07:24:51.132Z,31.02
2023-03-01T07:25:55.975Z,31.20
2023-03-01T07:26:58.493Z,29.88
2023-03-01T07:28:01.004Z,27.73
2023-03-01T07:29:06.178Z,27.45
2023-03-01T07:30:09.872Z,27.00
2023-03-01T07:31:12.623Z,26.80
2023-03-01T07:32:14.573Z,26.55
2023-03-01T07:33:17.230Z,25.98
2023-03-01T07:34:19.575Z,26.15
2023-03-01T07:35:22.347Z,26.48
2023-03-01T07:36:24.504Z,22.67
2023-03-01T07:37:26.984Z,24.48
2023-03-01T07:38:31.893Z,24.17
2023-03-01T07:39:33.445Z,23.10
2023-03-01T07:40:36.196Z,21.60
2023-03-01T07:41:39.165Z,21.23
2023-03-01T07:42:41.643Z,21.50
2023-03-01T07:43:43.161Z,20.23
2023-03-01T07:44:45.804Z,18.27
2023-03-01T07:45:47.422Z,18.38
2023-03-01T07:46:49.944Z,19.30
2023-03-01T07:47:52.437Z,18.75
2023-03-01T07:48:54.184Z,18.02
2023-03-01T07:49:56.644Z,16.95
2023-03-01T07:51:00.117Z,18.20
2023-03-01T07:52:16.913Z,17.05
2023-03-01T07:55:53.195Z,16.67
2023-03-01T07:57:03.501Z,16.38
2023-03-01T07:58:05.348Z,12.93
2023-03-01T07:59:07.847Z,15.68
2023-03-01T08:00:13.199Z,14.82
2023-03-01T08:01:17.669Z,15.23
2023-03-01T08:02:20.125Z,15.30
2023-03-01T08:03:21.696Z,15.30
2023-03-01T08:04:25.826Z,14.70
2023-03-01T08:05:27.395Z,14.10
2023-03-01T08:06:30.259Z,13.80
2023-03-01T08:07:33.144Z,13.70
2023-03-01T08:08:35.435Z,14.80
2023-03-01T08:09:38.593Z,14.85
2023-03-01T08:10:41.042Z,15.18
2023-03-01T08:11:43.529Z,15.45
2023-03-01T08:12:47.523Z,14.63
2023-03-01T08:13:51.779Z,14.52
2023-03-01T08:14:56.385Z,14.57
2023-03-01T08:16:03.198Z,14.40
2023-03-01T08:17:05.735Z,14.20
2023-03-01T08:18:07.770Z,14.52
2023-03-01T08:19:12.808Z,14.82
2023-03-01T08:20:15.312Z,15.05
2023-03-01T08:21:18.524Z,14.40
2023-03-01T08:22:21.009Z,14.68
2023-03-01T08:23:22.699Z,14.48
2023-03-01T08:24:25.824Z,14.77
2023-03-01T08:25:28.286Z,14.85
2023-03-01T08:26:30.315Z,15.07
2023-03-01T08:27:32.989Z,13.50
2023-03-01T08:28:36.342Z,15.60
2023-03-01T08:29:38.855Z,15.57
2023-03-01T08:30:40.403Z,15.07
2023-03-01T08:31:43.140Z,16.02
2023-03-01T08:32:44.759Z,14.70
2023-03-01T08:33:51.630Z,14.60
2023-03-01T08:34:54.412Z,14.68
2023-03-01T08:36:04.391Z,15.38
2023-03-01T08:37:06.897Z,11.27
2023-03-01T08:38:08.395Z,14.65
2023-03-01T08:39:12.091Z,14.55
2023-03-01T08:40:14.596Z,13.00
2023-03-01T08:41:19.605Z,15.15
2023-03-01T08:42:22.081Z,14.65
2023-03-01T08:43:26.494Z,15.20
2023-03-01T08:44:30.417Z,14.70
2023-03-01T08:45:33.136Z,14.45
2023-03-01T08:46:38.415Z,15.45
2023-03-01T08:47:40.967Z,14.68
2023-03-01T08:48:44.130Z,15.07
2023-03-01T08:49:46.584Z,15.43
2023-03-01T08:50:48.163Z,15.35
2023-03-01T08:51:50.789Z,14.15
2023-03-01T08:52:52.359Z,14.98
2023-03-01T08:53:54.983Z,14.70
2023-03-01T08:54:56.780Z,14.82
2023-03-01T08:56:01.936Z,14.02
2023-03-01T08:57:04.815Z,14.55
2023-03-01T08:58:07.276Z,14.90
2023-03-01T08:59:09.902Z,14.55
2023-03-01T09:00:15.885Z,15.05
2023-03-01T09:01:20.341Z,16.52
2023-03-01T09:02:23.005Z,14.75
2023-03-01T09:03:24.955Z,15.27
2023-03-01T09:04:27.588Z,16.30
2023-03-01T09:05:30.277Z,17.38
2023-03-01T09:06:32.870Z,16.77
2023-03-01T09:07:35.511Z,16.13
2023-03-01T09:08:38.446Z,16.55
2023-03-01T09:09:41.347Z,16.13
2023-03-01T09:10:43.293Z,17.15
2023-03-01T09:11:47.161Z,16.27
2023-03-01T09:12:49.785Z,16.05
2023-03-01T09:13:51.785Z,17.05
2023-03-01T09:14:54.335Z,16.25
2023-03-01T09:15:57.267Z,16.33
2023-03-01T09:16:59.776Z,18.45
2023-03-01T09:18:01.345Z,16.92
2023-03-01T09:19:05.557Z,16.92
2023-03-01T09:20:08.725Z,16.77
2023-03-01T09:21:13.083Z,16.10
2023-03-01T09:22:15.528Z,16.85
2023-03-01T09:23:18.048Z,16.73
2023-03-01T09:24:23.015Z,17.30
2023-03-01T09:25:25.552Z,17.88
2023-03-01T09:26:27.139Z,17.50
2023-03-01T09:27:29.614Z,17.00
2023-03-01T09:28:31.594Z,16.88
2023-03-01T09:29:34.086Z,16.77
2023-03-01T09:30:35.631Z,18.15
2023-03-01T09:31:40.241Z,16.95
2023-03-01T09:32:43.688Z,16.83
2023-03-01T09:33:49.399Z,17.65
2023-03-01T09:35:04.674Z,16.67
2023-03-01T09:36:10.237Z,18.27
2023-03-01T09:37:11.749Z,16.95
2023-03-01T09:38:14.908Z,17.13
2023-03-01T09:39:18.720Z,16.63
2023-03-01T09:40:23.734Z,16.75
2023-03-01T09:41:46.918Z,17.35
2023-03-01T09:42:56.713Z,16.90
2023-03-01T09:44:04.785Z,12.55
2023-03-01T09:45:13.733Z,15.93
2023-03-01T09:46:17.674Z,16.38
2023-03-01T09:47:25.091Z,17.35
2023-03-01T09:48:29.354Z,16.17
2023-03-01T09:49:34.491Z,16.85
2023-03-01T09:50:41.161Z,16.67
2023-03-01T09:51:44.234Z,16.13
2023-03-01T09:52:50.564Z,18.25
2023-03-01T09:53:55.494Z,16.60
2023-03-01T09:55:00.707Z,17.83
2023-03-01T09:56:13.962Z,17.75
2023-03-01T09:57:22.676Z,17.65
2023-03-01T09:58:52.888Z,18.10
2023-03-01T10:00:05.472Z,17.77
2023-03-01T10:01:25.791Z,16.10
2023-03-01T10:02:40.164Z,20.33
2023-03-01T10:03:47.369Z,17.15
2023-03-01T10:04:51.143Z,16.58
2023-03-01T10:06:01.307Z,17.35
2023-03-01T10:07:22.619Z,13.60
2023-03-01T10:08:40.166Z,16.73
2023-03-01T10:09:44.859Z,17.40
2023-03-01T10:10:49.189Z,17.20
2023-03-01T10:11:55.877Z,17.05
2023-03-01T10:12:59.269Z,17.23
2023-03-01T10:14:06.611Z,17.05
2023-03-01T10:15:16.438Z,16.15
2023-03-01T10:16:23.777Z,15.82
2023-03-01T10:17:35.532Z,17.00
2023-03-01T10:18:39.093Z,15.93
2023-03-01T10:19:43.392Z,15.10
2023-03-01T10:20:49.701Z,14.88
2023-03-01T10:21:53.543Z,15.63
2023-03-01T10:22:56.530Z,15.80
2023-03-01T10:24:08.923Z,15.20
2023-03-01T10:25:16.502Z,14.95
2023-03-01T10:26:36.672Z,15.35
2023-03-01T10:27:43.526Z,11.63
2023-03-01T10:28:56.478Z,16.05
2023-03-01T10:30:05.194Z,13.40
2023-03-01T10:31:13.562Z,15.32
2023-03-01T10:32:16.698Z,15.57
2023-03-01T10:33:24.395Z,15.30
2023-03-01T10:34:31.292Z,14.77
2023-03-01T10:35:36.972Z,14.63
2023-03-01T10:36:41.907Z,14.10
2023-03-01T10:37:59.173Z,14.48
2023-03-01T10:39:12.614Z,14.73
2023-03-01T10:40:15.368Z,14.00
2023-03-01T10:41:17.027Z,15.30
2023-03-01T10:42:28.380Z,14.80
2023-03-01T10:43:45.767Z,14.25
2023-03-01T10:44:50.581Z,13.60
2023-03-01T10:45:52.736Z,13.90
2023-03-01T10:47:02.459Z,15.02
2023-03-01T10:48:07.847Z,13.15
2023-03-01T10:49:17.914Z,13.50
2023-03-01T10:50:25.427Z,14.55
2023-03-01T10:51:27.858Z,14.02
2023-03-01T10:52:33.055Z,13.57
2023-03-01T10:53:37.729Z,13.05
2023-03-01T10:54:41.501Z,13.93
2023-03-01T10:55:44.077Z,14.48
2023-03-01T10:56:51.405Z,14.20
2023-03-01T10:58:08.703Z,12.98
2023-03-01T10:59:28.968Z,13.50
2023-03-01T11:00:31.754Z,13.77
2023-03-01T11:01:36.779Z,13.68
2023-03-01T11:02:38.483Z,13.25
2023-03-01T11:03:41.138Z,14.10
2023-03-01T11:04:57.614Z,13.70
2023-03-01T11:06:03.702Z,14.38
2023-03-01T11:07:05.224Z,14.55
2023-03-01T11:08:07.897Z,15.93
2023-03-01T11:09:17.024Z,17.20
2023-03-01T11:10:21.547Z,14.43
2023-03-01T11:11:28.867Z,13.85
2023-03-01T11:12:31.516Z,15.50
2023-03-01T11:13:33.541Z,15.15
2023-03-01T11:14:41.771Z,15.07
2023-03-01T11:15:44.168Z,13.27
2023-03-01T11:16:49.316Z,13.82
2023-03-01T11:17:57.064Z,15.35
2023-03-01T11:19:06.496Z,13.68
2023-03-01T11:20:30.125Z,14.98
2023-03-01T11:21:35.604Z,13.73
2023-03-01T11:22:37.701Z,14.75
2023-03-01T11:23:41.584Z,14.10
2023-03-01T11:24:50.811Z,14.15
2023-03-01T11:26:03.646Z,14.88
2023-03-01T11:27:15.129Z,15.07
2023-03-01T11:28:20.094Z,14.27
2023-03-01T11:29:37.293Z,13.95
2023-03-01T11:31:05.437Z,15.25
2023-03-01T11:32:10.786Z,12.00
2023-03-01T11:33:21.437Z,12.45
2023-03-01T11:34:33.327Z,12.75
2023-03-01T11:35:39.600Z,12.68
2023-03-01T11:36:47.088Z,11.73
2023-03-01T11:38:00.179Z,11.73
2023-03-01T11:39:05.911Z,14.18
2023-03-01T11:40:24.301Z,14.15
2023-03-01T11:41:32.292Z,13.90
2023-03-01T11:42:46.150Z,14.10
2023-03-01T11:43:53.487Z,13.55
2023-03-01T11:44:57.796Z,13.00
2023-03-01T11:46:27.102Z,13.10
2023-03-01T11:47:40.768Z,13.18
2023-03-01T11:48:55.494Z,13.57
2023-03-01T11:50:08.836Z,14.38
2023-03-01T11:51:22.790Z,14.25
2023-03-01T11:52:38.974Z,12.75
2023-03-01T11:53:56.334Z,13.15
2023-03-01T11:55:15.603Z,12.07
2023-03-01T11:56:29.272Z,12.75
2023-03-01T11:57:49.516Z,12.63
2023-03-01T11:59:08.636Z,13.02
2023-03-01T12:00:35.259Z,13.32
2023-03-01T12:01:53.385Z,13.45
2023-03-01T12:03:38.698Z,12.57
2023-03-01T12:05:19.207Z,13.13
2023-03-01T12:06:47.514Z,13.27
2023-03-01T12:07:59.799Z,13.20
2023-03-01T12:09:22.665Z,13.80
2023-03-01T12:10:29.063Z,13.65
2023-03-01T12:11:48.809Z,13.90
2023-03-01T12:13:09.527Z,13.93
2023-03-01T12:14:38.298Z,13.93
2023-03-01T12:15:55.429Z,13.52
2023-03-01T12:17:17.728Z,14.35
2023-03-01T12:18:34.602Z,12.88
2023-03-01T12:19:52.595Z,12.60
2023-03-01T12:21:05.727Z,13.88
2023-03-01T12:22:31.485Z,14.43
2023-03-01T12:23:59.819Z,12.60
2023-03-01T12:25:23.862Z,14.95
2023-03-01T12:26:31.502Z,15.63
2023-03-01T12:27:58.735Z,14.75
2023-03-01T12:29:17.339Z,13.52
2023-03-01T12:30:31.823Z,13.45
2023-03-01T12:31:55.639Z,12.57
2023-03-01T12:33:14.799Z,13.52
2023-03-01T12:34:35.331Z,13.63
2023-03-01T12:36:11.014Z,13.90
2023-03-01T12:37:25.901Z,13.02
2023-03-01T12:38:36.367Z,13.85
2023-03-01T12:39:51.112Z,14.10
2023-03-01T12:41:08.330Z,13.25
2023-03-01T12:42:19.876Z,13.35
2023-03-01T12:43:40.388Z,13.05
2023-03-01T12:44:57.460Z,14.27
2023-03-01T12:46:12.750Z,14.40
2023-03-01T12:47:32.014Z,13.30
2023-03-01T12:48:45.759Z,14.30
2023-03-01T12:49:53.236Z,14.75
2023-03-01T12:51:00.151Z,14.18
2023-03-01T12:52:10.643Z,15.43
2023-03-01T12:53:25.440Z,15.10
2023-03-01T12:54:29.885Z,14.73
2023-03-01T12:55:36.501Z,14.23
2023-03-01T12:56:43.192Z,14.18
2023-03-01T12:57:52.309Z,13.38
2023-03-01T12:59:04.372Z,14.82
2023-03-01T13:00:23.623Z,13.95
2023-03-01T13:01:40.200Z,14.18
2023-03-01T13:02:52.063Z,13.95
2023-03-01T13:04:12.159Z,13.32
2023-03-01T13:05:31.325Z,14.20
2023-03-01T13:06:43.806Z,13.75
2023-03-01T13:07:57.236Z,13.20
2023-03-01T13:09:10.888Z,13.57
2023-03-01T13:10:27.215Z,14.10
2023-03-01T13:11:32.921Z,14.60
2023-03-01T13:12:53.422Z,13.93
2023-03-01T13:14:37.795Z,13.63
2023-03-01T13:15:41.408Z,13.80
2023-03-01T13:16:45.865Z,13.60
2023-03-01T13:17:48.748Z,13.50
2023-03-01T13:18:51.638Z,13.77
2023-03-01T13:20:05.085Z,14.00
2023-03-01T13:21:08.148Z,13.63
2023-03-01T13:22:30.445Z,14.10
2023-03-01T13:23:37.548Z,14.88
2023-03-01T13:24:42.865Z,13.77
2023-03-01T13:26:09.350Z,13.90
2023-03-01T13:27:25.850Z,13.68
2023-03-01T13:29:02.148Z,14.38
2023-03-01T13:30:06.693Z,14.45
2023-03-01T13:31:10.340Z,15.23
2023-03-01T13:32:24.955Z,13.95
2023-03-01T13:33:46.197Z,14.32
2023-03-01T13:34:54.938Z,15.20
2023-03-01T13:35:58.498Z,13.98
2023-03-01T13:37:10.994Z,14.38
2023-03-01T13:38:46.913Z,14.55
2023-03-01T13:39:51.165Z,13.73
2023-03-01T13:41:01.369Z,14.73
2023-03-01T13:42:02.929Z,14.82
2023-03-01T13:43:30.865Z,13.60
2023-03-01T13:44:36.988Z,14.70
2023-03-01T13:45:41.375Z,14.48
2023-03-01T13:46:46.478Z,14.35
2023-03-01T13:47:54.590Z,14.50
2023-03-01T13:48:58.886Z,14.27
2023-03-01T13:50:02.400Z,14.65
2023-03-01T13:51:08.529Z,13.80
2023-03-01T13:52:40.238Z,12.75
2023-03-01T13:53:46.183Z,12.25
2023-03-01T13:54:47.788Z,11.15
2023-03-01T13:55:55.606Z,12.05
2023-03-01T13:56:59.029Z,11.52
2023-03-01T13:58:04.439Z,12.10
2023-03-01T13:59:15.032Z,12.00
2023-03-01T14:01:36.282Z,11.77
2023-03-01T14:02:38.357Z,11.55
2023-03-01T14:03:44.453Z,11.82
2023-03-01T14:05:00.644Z,11.75
2023-03-01T14:06:15.216Z,11.82
2023-03-01T14:07:23.148Z,12.27
2023-03-01T14:08:28.190Z,11.07
2023-03-01T14:09:36.791Z,10.88
2023-03-01T14:10:50.474Z,10.55
2023-03-01T14:12:17.619Z,11.50
2023-03-01T14:13:36.356Z,10.85
2023-03-01T14:14:47.351Z,11.18
2023-03-01T14:16:05.501Z,10.50